Time;durP1;ratioP1;P1;durP2;ratioP2;P2;SDS_P1;SDS_P2;PMS_P1;PMS_P2;Temp;Humidity;BMP_temperature;BMP_pressure;BME280_temperature;BME280_humidity;BME280_pressure;Samples;Min_cycle;Max_cycle;Signal;HPM_P1;HPM_P2
2022/10/26 03:30:12;;;;;;;32.88;11.50;;;;;;;;;;1772503;79;23422;-80
2022/10/26 03:32:38;;;;;;;32.60;11.55;;;;;;;;;;1726826;83;21814;-80
2022/10/26 03:35:04;;;;;;;28.95;10.70;;;;;;;;;;1727129;83;21165;-80
2022/10/26 03:37:30;;;;;;;29.15;11.40;;;;;;;;;;1727182;83;21019;-81
2022/10/26 03:39:55;;;;;;;32.38;10.98;;;;;;;;;;1727180;83;20923;-81
2022/10/26 03:42:21;;;;;;;30.75;11.08;;;;;;;;;;1727237;83;21372;-78
2022/10/26 03:44:47;;;;;;;28.70;10.63;;;;;;;;;;1727273;82;20912;-77
2022/10/26 03:47:12;;;;;;;28.42;10.20;;;;;;;;;;1726699;82;21168;-79
2022/10/26 03:49:38;;;;;;;23.98;9.45;;;;;;;;;;1727027;82;20912;-78
2022/10/26 03:52:04;;;;;;;30.27;10.20;;;;;;;;;;1727178;83;20907;-79
2022/10/26 03:54:29;;;;;;;26.85;9.75;;;;;;;;;;1727157;83;21554;-79
2022/10/26 03:56:55;;;;;;;28.90;9.45;;;;;;;;;;1727154;83;20982;-79
2022/10/26 03:59:21;;;;;;;26.12;9.23;;;;;;;;;;1727174;82;21887;-78
2022/10/26 04:01:46;;;;;;;22.52;8.68;;;;;;;;;;1726926;82;20817;-75
2022/10/26 04:04:12;;;;;;;27.58;9.18;;;;;;;;;;1727125;83;20947;-78
2022/10/26 04:06:37;;;;;;;23.20;8.53;;;;;;;;;;1727130;81;20904;-78
2022/10/26 04:09:03;;;;;;;29.57;9.28;;;;;;;;;;1727080;82;20920;-79
2022/10/26 04:11:29;;;;;;;23.07;9.10;;;;;;;;;;1727203;82;21088;-78
2022/10/26 04:13:54;;;;;;;25.57;8.50;;;;;;;;;;1727027;83;21067;-78
2022/10/26 04:16:20;;;;;;;21.02;8.48;;;;;;;;;;1726939;82;20892;-78
2022/10/26 04:18:46;;;;;;;27.50;9.63;;;;;;;;;;1727038;82;21621;-78
2022/10/26 04:21:12;;;;;;;24.25;8.30;;;;;;;;;;1726962;82;21051;-78
2022/10/26 04:23:38;;;;;;;22.55;8.23;;;;;;;;;;1724078;83;21609;-78
2022/10/26 04:26:06;;;;;;;17.95;8.08;;;;;;;;;;1726890;82;20872;-78
2022/10/26 04:28:32;;;;;;;22.17;7.62;;;;;;;;;;1727002;81;21047;-78
2022/10/26 04:30:58;;;;;;;24.32;7.80;;;;;;;;;;1727248;82;20888;-78
2022/10/26 04:33:24;;;;;;;20.62;7.97;;;;;;;;;;1727406;82;20908;-76
2022/10/26 04:35:49;;;;;;;21.00;7.97;;;;;;;;;;1727275;82;21896;-78
2022/10/26 04:38:15;;;;;;;16.87;7.90;;;;;;;;;;1727157;82;20943;-77
2022/10/26 04:40:40;;;;;;;21.10;7.53;;;;;;;;;;1726994;83;20979;-78
2022/10/26 04:43:06;;;;;;;20.82;7.62;;;;;;;;;;1726746;82;20822;-78
2022/10/26 04:45:32;;;;;;;24.47;8.28;;;;;;;;;;1726579;82;20954;-78
2022/10/26 04:48:05;;;;;;;21.10;8.08;;;;;;;;;;1726681;82;21087;-78
2022/10/26 04:50:30;;;;;;;24.32;8.45;;;;;;;;;;1667556;86;21083;-76
2022/10/26 04:52:57;;;;;;;18.10;7.25;;;;;;;;;;1667548;86;21002;-78
2022/10/26 04:55:22;;;;;;;20.57;7.35;;;;;;;;;;1667212;84;21133;-78
2022/10/26 04:57:48;;;;;;;16.00;7.53;;;;;;;;;;1667384;86;21010;-79
2022/10/26 05:00:15;;;;;;;21.07;8.63;;;;;;;;;;1667340;86;21102;-79
2022/10/26 05:02:40;;;;;;;20.92;8.88;;;;;;;;;;1667571;86;21004;-79
2022/10/26 05:05:06;;;;;;;18.95;8.25;;;;;;;;;;1667497;86;20848;-79
2022/10/26 05:07:32;;;;;;;20.20;7.80;;;;;;;;;;1666534;84;21122;-82
2022/10/26 05:09:58;;;;;;;17.70;7.22;;;;;;;;;;1672311;84;21133;-81
2022/10/26 05:12:24;;;;;;;19.07;7.85;;;;;;;;;;1674181;84;21794;-79
2022/10/26 05:14:49;;;;;;;17.65;7.35;;;;;;;;;;1676301;85;20916;-78
2022/10/26 05:17:15;;;;;;;18.25;7.53;;;;;;;;;;1676730;85;20987;-78
2022/10/26 05:19:41;;;;;;;16.42;7.30;;;;;;;;;;1676465;85;20999;-82
2022/10/26 05:22:07;;;;;;;18.77;7.35;;;;;;;;;;1645307;86;21513;-80
2022/10/26 05:24:33;;;;;;;13.85;6.67;;;;;;;;;;1667377;86;21102;-81
2022/10/26 05:26:59;;;;;;;16.55;7.60;;;;;;;;;;1676989;81;21050;-79
2022/10/26 05:29:24;;;;;;;19.17;7.80;;;;;;;;;;1752746;81;21026;-81
2022/10/26 05:31:51;;;;;;;16.15;7.25;;;;;;;;;;1744485;80;20853;-80
2022/10/26 05:34:20;;;;;;;17.65;7.15;;;;;;;;;;1748834;82;21034;-79
2022/10/26 05:36:45;;;;;;;12.73;6.62;;;;;;;;;;1748584;82;21087;-86
2022/10/26 05:39:11;;;;;;;13.90;6.37;;;;;;;;;;1748613;81;20829;-80
2022/10/26 05:41:37;;;;;;;15.13;6.87;;;;;;;;;;1748531;81;20940;-79
2022/10/26 05:44:02;;;;;;;16.02;7.60;;;;;;;;;;1748665;81;20927;-79
2022/10/26 05:46:28;;;;;;;14.25;7.08;;;;;;;;;;1748810;81;20951;-79
2022/10/26 05:48:54;;;;;;;14.95;7.00;;;;;;;;;;1748828;82;20867;-78
2022/10/26 05:51:19;;;;;;;13.70;6.53;;;;;;;;;;1748650;81;20946;-79
2022/10/26 05:53:45;;;;;;;16.12;7.37;;;;;;;;;;1748793;81;20773;-78
2022/10/26 05:56:14;;;;;;;13.18;6.40;;;;;;;;;;1748802;81;21637;-78
2022/10/26 05:58:40;;;;;;;11.85;6.10;;;;;;;;;;1748032;80;21049;-79
2022/10/26 06:01:24;;;;;;;11.28;5.90;;;;;;;;;;1738316;81;21237;-79
2022/10/26 06:04:16;;;;;;;13.43;5.90;;;;;;;;;;1738166;82;20988;-80
2022/10/26 06:06:44;;;;;;;14.25;5.80;;;;;;;;;;1748579;82;21551;-78
2022/10/26 06:09:11;;;;;;;11.43;5.10;;;;;;;;;;1746420;80;22552;-78
2022/10/26 06:11:37;;;;;;;13.45;5.45;;;;;;;;;;1744267;82;20989;-79
2022/10/26 06:14:03;;;;;;;13.55;5.10;;;;;;;;;;1745541;82;21231;-77
2022/10/26 06:16:51;;;;;;;11.03;5.10;;;;;;;;;;1744670;82;21647;-83
2022/10/26 06:19:33;;;;;;;14.38;5.17;;;;;;;;;;1737494;81;21481;-79
2022/10/26 06:22:28;;;;;;;13.18;4.58;;;;;;;;;;1741218;81;21022;-80
2022/10/26 06:24:57;;;;;;;15.68;4.35;;;;;;;;;;1741890;82;21057;-80
2022/10/26 06:28:02;;;;;;;13.13;5.17;;;;;;;;;;1726466;82;22507;-81
2022/10/26 06:30:27;;;;;;;13.58;4.65;;;;;;;;;;1657498;84;21133;-80
2022/10/26 06:32:55;;;;;;;10.30;4.60;;;;;;;;;;1658148;84;21654;-81
2022/10/26 06:35:44;;;;;;;10.10;4.67;;;;;;;;;;1665484;84;21040;-79
2022/10/26 06:38:16;;;;;;;12.78;4.20;;;;;;;;;;1666671;84;22050;-80
2022/10/26 06:40:44;;;;;;;8.75;4.05;;;;;;;;;;1634906;86;21126;-77
2022/10/26 06:43:12;;;;;;;11.30;3.60;;;;;;;;;;1633872;86;22063;-77
2022/10/26 06:45:40;;;;;;;9.60;3.75;;;;;;;;;;1573574;89;21123;-80
2022/10/26 06:48:09;;;;;;;6.12;3.02;;;;;;;;;;1583004;89;21100;-81
2022/10/26 06:50:41;;;;;;;6.80;3.12;;;;;;;;;;1583893;90;21110;-81
2022/10/26 06:53:13;;;;;;;7.10;3.10;;;;;;;;;;1575305;90;21101;-82
2022/10/26 06:55:43;;;;;;;4.70;2.98;;;;;;;;;;1434176;99;21157;-81
2022/10/26 06:58:15;;;;;;;6.12;3.12;;;;;;;;;;1443666;99;21592;-82
2022/10/26 07:00:42;;;;;;;5.03;2.52;;;;;;;;;;1449032;99;21175;-81
2022/10/26 07:03:07;;;;;;;7.87;3.22;;;;;;;;;;1449198;99;21123;-83
2022/10/26 07:05:34;;;;;;;5.25;2.33;;;;;;;;;;1449198;99;21018;-80
2022/10/26 07:07:59;;;;;;;5.45;2.60;;;;;;;;;;1449051;97;21184;-81
2022/10/26 07:10:25;;;;;;;5.55;2.15;;;;;;;;;;1437668;98;21054;-83
2022/10/26 07:12:51;;;;;;;6.53;2.60;;;;;;;;;;1451340;98;20919;-80
2022/10/26 07:15:17;;;;;;;4.33;2.70;;;;;;;;;;1451214;97;21527;-80
2022/10/26 07:17:44;;;;;;;4.90;2.37;;;;;;;;;;1464307;96;21400;-80
2022/10/26 07:20:11;;;;;;;5.70;2.45;;;;;;;;;;1463054;97;21149;-80
2022/10/26 07:22:37;;;;;;;4.60;2.60;;;;;;;;;;1456082;97;21168;-81
2022/10/26 07:25:03;;;;;;;5.75;2.52;;;;;;;;;;1432529;99;21851;-80
2022/10/26 07:27:29;;;;;;;4.67;2.62;;;;;;;;;;1434493;99;21196;-81
2022/10/26 07:29:55;;;;;;;10.32;3.00;;;;;;;;;;1425478;99;21139;-80
2022/10/26 07:32:36;;;;;;;7.87;2.95;;;;;;;;;;1428643;99;21658;-80
2022/10/26 07:34:54;;;;;;;6.33;3.35;;;;;;;;;;1442585;98;21138;-81
2022/10/26 07:37:23;;;;;;;6.22;3.50;;;;;;;;;;1443151;99;21161;-81
2022/10/26 07:39:50;;;;;;;6.95;3.80;;;;;;;;;;1424700;99;21144;-80
2022/10/26 07:45:45;;;;;;;14.05;4.17;;;;;;;;;;1506566;93;21146;-80
2022/10/26 07:48:10;;;;;;;9.48;4.72;;;;;;;;;;1517728;93;21132;-80
2022/10/26 07:50:43;;;;;;;13.28;5.08;;;;;;;;;;1505210;93;21810;-81
2022/10/26 07:56:02;;;;;;;12.95;5.80;;;;;;;;;;1537397;92;21178;-82
2022/10/26 07:58:27;;;;;;;13.83;6.08;;;;;;;;;;1461965;96;21227;-78
2022/10/26 08:01:07;;;;;;;17.15;7.33;;;;;;;;;;1452677;96;21066;-80
2022/10/26 08:06:03;;;;;;;20.20;8.33;;;;;;;;;;1438714;99;21162;-81
2022/10/26 09:45:51;;;;;;;;;;;;;;;;;;;;;
2022/10/26 09:48:12;;;;;;;;;;;;;;;;;;;;;
2022/10/26 11:41:08;;;;;;;;;;;;;;;;;;;;;
2022/10/26 11:47:35;;;;;;;;;;;;;;;;;;;;;
2022/10/26 12:42:16;;;;;;;;;;;;;;;;;;;;;
2022/10/26 12:44:40;;;;;;;39.42;14.60;;;;;;;;;;1669411;85;21083;-81
2022/10/26 12:47:33;;;;;;;41.67;15.40;;;;;;;;;;1619339;88;21087;-82
2022/10/26 17:42:48;;;;;;;20.10;8.05;;;;;;;;;;1773287;80;21039;-79
2022/10/26 17:45:13;;;;;;;19.80;8.10;;;;;;;;;;1783253;80;20987;-80
2022/10/26 17:47:39;;;;;;;20.08;8.43;;;;;;;;;;1783894;80;21019;-80
2022/10/26 17:50:06;;;;;;;17.75;7.58;;;;;;;;;;1783698;80;20884;-80
2022/10/26 17:52:32;;;;;;;16.17;7.20;;;;;;;;;;1783760;80;20967;-80
2022/10/26 17:54:57;;;;;;;14.20;7.85;;;;;;;;;;1783245;80;22334;-79
2022/10/26 17:57:24;;;;;;;15.10;7.45;;;;;;;;;;1782848;80;20896;-80
2022/10/26 17:59:49;;;;;;;14.50;7.60;;;;;;;;;;1783272;80;21076;-80
2022/10/26 18:02:15;;;;;;;14.70;7.72;;;;;;;;;;1783760;80;20955;-80
2022/10/26 18:04:41;;;;;;;17.73;8.50;;;;;;;;;;1783770;80;21574;-80
2022/10/26 18:07:06;;;;;;;18.30;7.97;;;;;;;;;;1782887;80;21035;-78
2022/10/26 18:09:32;;;;;;;22.58;9.28;;;;;;;;;;1783634;80;20857;-81
2022/10/26 18:11:58;;;;;;;22.87;9.08;;;;;;;;;;1783733;80;21894;-80
2022/10/26 18:14:24;;;;;;;20.75;9.53;;;;;;;;;;1782849;80;20853;-80
2022/10/26 18:16:49;;;;;;;17.95;8.38;;;;;;;;;;1783864;80;20955;-81
2022/10/26 18:19:15;;;;;;;15.83;8.30;;;;;;;;;;1783659;80;20931;-78
2022/10/26 18:21:41;;;;;;;21.02;9.85;;;;;;;;;;1783891;80;20968;-81
2022/10/26 18:24:08;;;;;;;19.17;9.93;;;;;;;;;;1781345;80;21066;-79
2022/10/26 18:26:34;;;;;;;18.67;8.78;;;;;;;;;;1783513;80;21016;-81
2022/10/26 18:29:01;;;;;;;19.25;9.23;;;;;;;;;;1783598;80;21038;-81
2022/10/26 18:31:27;;;;;;;16.70;9.30;;;;;;;;;;1783416;80;21051;-80
2022/10/26 18:33:57;;;;;;;19.17;9.58;;;;;;;;;;1783259;80;21050;-81
2022/10/26 18:36:24;;;;;;;25.72;10.75;;;;;;;;;;1782581;80;21871;-81
2022/10/26 18:38:50;;;;;;;19.95;8.83;;;;;;;;;;1782758;80;20996;-80
2022/10/26 18:41:17;;;;;;;20.85;9.33;;;;;;;;;;1783638;80;20991;-79
2022/10/26 18:43:45;;;;;;;18.27;9.43;;;;;;;;;;1762540;80;21036;-80
2022/10/26 18:46:14;;;;;;;20.85;10.10;;;;;;;;;;1756673;81;21024;-80
2022/10/26 18:48:40;;;;;;;21.93;9.20;;;;;;;;;;1699568;83;21091;-80
2022/10/26 18:51:08;;;;;;;16.90;8.60;;;;;;;;;;1699516;84;21607;-81
2022/10/26 18:53:36;;;;;;;19.80;9.68;;;;;;;;;;1615080;88;21091;-80
2022/10/26 18:56:04;;;;;;;19.52;9.78;;;;;;;;;;1615042;88;21035;-80
2022/10/26 18:58:34;;;;;;;24.30;9.85;;;;;;;;;;1615137;88;21059;-81
2022/10/26 19:01:06;;;;;;;19.95;9.70;;;;;;;;;;1611650;88;21281;-80
2022/10/26 19:03:32;;;;;;;20.82;9.73;;;;;;;;;;1563574;91;21435;-81
2022/10/26 19:05:58;;;;;;;20.95;10.13;;;;;;;;;;1554299;91;21140;-83
2022/10/26 19:08:23;;;;;;;23.45;9.75;;;;;;;;;;1546620;92;21052;-82
2022/10/26 19:10:49;;;;;;;19.05;9.40;;;;;;;;;;1546663;92;21488;-79
2022/10/26 19:13:14;;;;;;;23.70;10.68;;;;;;;;;;1546562;92;21108;-80
2022/10/26 19:15:40;;;;;;;18.02;9.25;;;;;;;;;;1546482;92;21456;-81
2022/10/26 19:18:06;;;;;;;20.57;9.78;;;;;;;;;;1546467;92;21000;-82
2022/10/26 19:20:32;;;;;;;19.15;9.95;;;;;;;;;;1546324;92;20988;-78
2022/10/26 19:23:00;;;;;;;21.82;9.80;;;;;;;;;;1546608;92;20973;-83
2022/10/26 19:25:26;;;;;;;21.65;10.58;;;;;;;;;;1546638;92;21087;-82
2022/10/26 19:27:54;;;;;;;26.20;11.25;;;;;;;;;;1546360;92;20854;-79
2022/10/26 19:30:19;;;;;;;23.77;12.25;;;;;;;;;;1546199;90;21138;-81
2022/10/26 19:32:44;;;;;;;25.85;12.00;;;;;;;;;;1546495;92;21614;-83
2022/10/26 19:35:10;;;;;;;26.17;12.70;;;;;;;;;;1546405;92;21027;-80
2022/10/26 19:37:36;;;;;;;23.85;11.00;;;;;;;;;;1546759;92;21625;-80
2022/10/26 19:40:02;;;;;;;22.15;10.30;;;;;;;;;;1546592;92;20952;-80
2022/10/26 19:42:27;;;;;;;22.27;10.82;;;;;;;;;;1549656;91;21045;-79
2022/10/26 19:44:53;;;;;;;22.65;10.13;;;;;;;;;;1564643;90;20941;-81
2022/10/26 19:47:19;;;;;;;20.15;9.60;;;;;;;;;;1583836;90;21024;-82
2022/10/26 19:49:45;;;;;;;22.20;9.38;;;;;;;;;;1612522;83;21512;-82
2022/10/26 19:52:11;;;;;;;31.80;10.30;;;;;;;;;;1708962;84;20898;-83
2022/10/26 19:54:36;;;;;;;23.30;9.88;;;;;;;;;;1685113;84;20953;-79
2022/10/26 19:57:02;;;;;;;25.45;9.23;;;;;;;;;;1708320;84;20882;-80
2022/10/26 19:59:28;;;;;;;21.68;9.43;;;;;;;;;;1713745;82;20889;-79
2022/10/26 20:01:54;;;;;;;23.30;9.08;;;;;;;;;;1735649;81;21907;-85
2022/10/26 20:04:20;;;;;;;27.85;9.00;;;;;;;;;;1735571;82;20897;-79
2022/10/26 20:06:45;;;;;;;22.30;9.88;;;;;;;;;;1735660;82;22554;-80
2022/10/26 20:09:11;;;;;;;21.10;9.00;;;;;;;;;;1735778;81;20826;-80
2022/10/26 20:11:40;;;;;;;16.17;7.42;;;;;;;;;;1735827;82;20952;-80
2022/10/26 20:14:06;;;;;;;16.20;7.58;;;;;;;;;;1734443;82;21586;-80
2022/10/26 20:16:32;;;;;;;15.43;7.33;;;;;;;;;;1735435;82;20973;-80
2022/10/26 20:18:59;;;;;;;22.07;7.75;;;;;;;;;;1754466;81;20898;-80
2022/10/26 20:21:25;;;;;;;19.17;7.08;;;;;;;;;;1735748;82;20992;-78
2022/10/26 20:23:51;;;;;;;14.53;7.12;;;;;;;;;;1735851;82;20929;-78
2022/10/26 20:26:17;;;;;;;13.93;6.50;;;;;;;;;;1735731;82;21058;-80
2022/10/26 20:28:45;;;;;;;14.30;6.80;;;;;;;;;;1735429;82;20985;-80
2022/10/26 20:31:11;;;;;;;14.60;6.37;;;;;;;;;;1735691;82;21040;-78
2022/10/26 20:33:36;;;;;;;12.60;5.83;;;;;;;;;;1735725;82;21409;-80
2022/10/26 20:36:02;;;;;;;15.58;6.62;;;;;;;;;;1735903;82;21647;-80
2022/10/26 20:38:28;;;;;;;18.00;5.97;;;;;;;;;;1735784;82;21134;-80
2022/10/26 20:40:58;;;;;;;11.88;6.17;;;;;;;;;;1735484;82;20988;-85
2022/10/26 20:43:25;;;;;;;12.28;5.83;;;;;;;;;;1754519;81;21037;-79
2022/10/26 20:45:51;;;;;;;10.80;5.75;;;;;;;;;;1770885;80;21136;-79
2022/10/26 20:48:17;;;;;;;14.53;5.62;;;;;;;;;;1771032;80;21005;-79
2022/10/26 20:50:49;;;;;;;10.65;5.50;;;;;;;;;;1771179;81;21620;-80
2022/10/26 20:53:27;;;;;;;12.30;5.58;;;;;;;;;;1767943;81;20998;-80
2022/10/26 20:55:56;;;;;;;14.18;5.97;;;;;;;;;;1771019;80;20946;-78
2022/10/26 20:58:36;;;;;;;12.07;5.65;;;;;;;;;;1770887;80;21478;-81
2022/10/26 21:01:05;;;;;;;9.73;5.50;;;;;;;;;;1770982;80;21096;-80
2022/10/26 21:03:31;;;;;;;13.50;6.25;;;;;;;;;;1771195;80;21071;-80
2022/10/26 21:05:57;;;;;;;15.08;6.22;;;;;;;;;;1771034;80;20866;-80
2022/10/26 21:08:22;;;;;;;12.78;5.67;;;;;;;;;;1771002;80;20885;-80
2022/10/26 21:10:50;;;;;;;12.28;5.53;;;;;;;;;;1772250;80;21579;-80
2022/10/26 21:13:15;;;;;;;10.60;5.70;;;;;;;;;;1771137;80;21088;-81
2022/10/26 21:15:41;;;;;;;12.30;5.65;;;;;;;;;;1751145;80;21874;-78
2022/10/26 21:18:07;;;;;;;10.20;5.42;;;;;;;;;;1751009;82;20868;-80
2022/10/26 21:20:32;;;;;;;11.93;5.33;;;;;;;;;;1751033;81;20887;-81
2022/10/26 21:22:58;;;;;;;12.63;5.72;;;;;;;;;;1751088;82;20828;-82
2022/10/26 21:25:24;;;;;;;13.15;5.40;;;;;;;;;;1751072;82;20855;-80
2022/10/26 21:27:56;;;;;;;12.47;6.20;;;;;;;;;;1751269;81;21079;-83
2022/10/26 21:30:24;;;;;;;12.53;5.80;;;;;;;;;;1751231;81;21085;-80
2022/10/26 21:32:50;;;;;;;10.98;5.65;;;;;;;;;;1751057;81;21002;-79
2022/10/26 21:35:16;;;;;;;12.25;5.35;;;;;;;;;;1751239;81;21494;-83
2022/10/26 21:37:42;;;;;;;12.75;5.72;;;;;;;;;;1751264;81;21060;-80
2022/10/26 21:40:09;;;;;;;12.80;5.53;;;;;;;;;;1751092;82;21803;-78
2022/10/26 21:42:35;;;;;;;10.65;5.60;;;;;;;;;;1747209;81;21013;-83
2022/10/26 21:45:00;;;;;;;8.43;5.10;;;;;;;;;;1743672;81;20855;-80
2022/10/26 21:47:26;;;;;;;11.45;5.60;;;;;;;;;;1743536;82;20835;-80
2022/10/26 21:49:52;;;;;;;10.00;5.65;;;;;;;;;;1743623;80;20880;-78
2022/10/26 21:52:17;;;;;;;9.28;5.22;;;;;;;;;;1743803;81;21150;-80
2022/10/26 21:54:43;;;;;;;10.23;5.80;;;;;;;;;;1743423;80;21014;-80
2022/10/26 21:57:08;;;;;;;12.43;5.95;;;;;;;;;;1743757;81;20801;-80
2022/10/26 21:59:34;;;;;;;14.50;5.22;;;;;;;;;;1743650;82;20891;-84
2022/10/26 22:02:00;;;;;;;8.53;5.03;;;;;;;;;;1743645;82;20919;-81
2022/10/26 22:04:26;;;;;;;14.18;5.70;;;;;;;;;;1743703;81;21918;-80
2022/10/26 22:06:51;;;;;;;8.93;5.00;;;;;;;;;;1743596;81;21098;-81
2022/10/26 22:09:17;;;;;;;14.47;5.60;;;;;;;;;;1743563;81;20875;-81
2022/10/26 22:11:43;;;;;;;13.85;4.90;;;;;;;;;;1743657;82;21070;-80
2022/10/26 22:14:08;;;;;;;10.03;5.17;;;;;;;;;;1743641;82;20955;-81
2022/10/26 22:16:34;;;;;;;12.37;4.83;;;;;;;;;;1743633;82;21068;-87
2022/10/26 22:19:05;;;;;;;13.55;5.00;;;;;;;;;;1740321;82;21380;-81
2022/10/26 22:21:36;;;;;;;15.10;5.58;;;;;;;;;;1743610;81;21010;-81
2022/10/26 22:24:02;;;;;;;12.98;5.05;;;;;;;;;;1743832;81;21614;-81
2022/10/26 22:26:27;;;;;;;21.23;5.80;;;;;;;;;;1743631;81;21640;-81
2022/10/26 22:28:55;;;;;;;17.23;6.35;;;;;;;;;;1743633;81;21075;-80
2022/10/26 22:31:24;;;;;;;18.73;5.85;;;;;;;;;;1743541;81;21022;-80
2022/10/26 22:33:54;;;;;;;17.80;5.83;;;;;;;;;;1720528;83;21611;-84
2022/10/26 22:36:20;;;;;;;14.43;5.60;;;;;;;;;;1720505;83;21063;-80
2022/10/26 22:38:46;;;;;;;10.63;5.12;;;;;;;;;;1720452;83;20908;-80
2022/10/26 22:41:12;;;;;;;13.22;4.90;;;;;;;;;;1720257;83;21378;-81
2022/10/26 22:43:37;;;;;;;11.20;4.87;;;;;;;;;;1721869;82;20968;-80
2022/10/26 22:46:06;;;;;;;13.13;4.90;;;;;;;;;;1726112;83;20893;-80
2022/10/26 22:48:33;;;;;;;11.38;4.65;;;;;;;;;;1687437;85;21122;-80
2022/10/26 22:51:05;;;;;;;11.33;4.28;;;;;;;;;;1687515;85;21154;-80
2022/10/26 22:53:31;;;;;;;9.58;4.53;;;;;;;;;;1602431;89;21190;-80
2022/10/26 22:55:57;;;;;;;14.60;4.67;;;;;;;;;;1605221;89;21778;-80
2022/10/26 22:58:22;;;;;;;11.68;3.75;;;;;;;;;;1605425;89;20868;-80
2022/10/26 23:00:48;;;;;;;26.40;4.92;;;;;;;;;;1605568;89;21577;-80
2022/10/26 23:03:14;;;;;;;10.45;4.50;;;;;;;;;;1605481;88;21070;-81
2022/10/26 23:05:49;;;;;;;10.05;4.30;;;;;;;;;;1605541;89;21239;-80
2022/10/26 23:08:15;;;;;;;12.65;4.67;;;;;;;;;;1605730;89;21141;-80
2022/10/26 23:10:41;;;;;;;13.72;4.72;;;;;;;;;;1605533;89;20938;-80
2022/10/26 23:13:06;;;;;;;12.13;4.20;;;;;;;;;;1605625;89;20916;-80
2022/10/26 23:15:32;;;;;;;9.75;3.75;;;;;;;;;;1605534;89;20872;-80
2022/10/26 23:17:57;;;;;;;11.08;4.17;;;;;;;;;;1605486;89;21845;-79
2022/10/26 23:20:23;;;;;;;9.55;3.75;;;;;;;;;;1605446;89;20880;-80
2022/10/26 23:22:49;;;;;;;8.90;3.47;;;;;;;;;;1605420;89;21022;-80
2022/10/26 23:25:14;;;;;;;8.55;3.98;;;;;;;;;;1605575;89;21589;-80
2022/10/26 23:27:40;;;;;;;10.10;3.90;;;;;;;;;;1605659;89;20945;-80
2022/10/26 23:30:07;;;;;;;7.65;3.80;;;;;;;;;;1612316;87;20986;-80
2022/10/26 23:32:32;;;;;;;8.60;3.50;;;;;;;;;;1632711;87;21081;-79
2022/10/26 23:34:58;;;;;;;7.50;3.47;;;;;;;;;;1632810;87;20844;-79
2022/10/26 23:37:23;;;;;;;8.55;3.62;;;;;;;;;;1633359;87;21416;-80
2022/10/26 23:39:49;;;;;;;4.90;2.80;;;;;;;;;;1633106;87;21027;-80
2022/10/26 23:42:15;;;;;;;8.35;2.92;;;;;;;;;;1632924;87;21436;-82
2022/10/26 23:44:40;;;;;;;8.75;3.70;;;;;;;;;;1632473;86;20928;-80
2022/10/26 23:47:06;;;;;;;6.87;3.05;;;;;;;;;;1651876;86;20924;-77
2022/10/26 23:49:31;;;;;;;6.75;3.35;;;;;;;;;;1670140;82;20899;-80
2022/10/26 23:51:57;;;;;;;6.10;2.77;;;;;;;;;;1741583;82;21396;-80
2022/10/26 23:54:23;;;;;;;5.72;2.37;;;;;;;;;;1741436;82;21046;-80
2022/10/26 23:56:49;;;;;;;6.03;2.50;;;;;;;;;;1741413;82;20883;-81
2022/10/26 23:59:14;;;;;;;5.65;2.30;;;;;;;;;;1741375;82;20958;-80
